createdAt,value
2019-05-19T00:00:27.979Z,0.00
2019-05-19T00:01:27.954Z,0.00
2019-05-19T00:02:27.935Z,0.00
2019-05-19T00:03:27.921Z,0.00
2019-05-19T00:04:28.543Z,0.00
2019-05-19T00:05:28.247Z,0.00
2019-05-19T00:06:27.907Z,0.00
2019-05-19T00:07:27.866Z,0.00
2019-05-19T00:08:27.862Z,0.00
2019-05-19T00:09:27.847Z,0.00
2019-05-19T00:10:27.913Z,0.00
2019-05-19T00:11:27.874Z,0.00
2019-05-19T00:12:27.825Z,0.00
2019-05-19T00:13:27.812Z,0.00
2019-05-19T00:14:28.518Z,0.00
2019-05-19T00:15:27.815Z,0.00
2019-05-19T00:16:27.776Z,0.00
2019-05-19T00:17:27.771Z,0.00
2019-05-19T00:18:27.756Z,0.00
2019-05-19T00:19:27.744Z,0.00
2019-05-19T00:20:27.759Z,0.00
2019-05-19T00:21:27.902Z,0.00
2019-05-19T00:22:27.729Z,0.00
2019-05-19T00:23:27.726Z,0.00
2019-05-19T00:24:27.699Z,0.00
2019-05-19T00:25:27.689Z,0.00
2019-05-19T00:26:27.685Z,0.00
2019-05-19T00:27:27.665Z,0.00
2019-05-19T00:28:27.649Z,0.00
2019-05-19T00:29:27.646Z,0.00
2019-05-19T00:30:27.630Z,0.00
2019-05-19T00:31:27.630Z,0.00
2019-05-19T00:32:27.620Z,0.00
2019-05-19T00:33:27.603Z,0.00
2019-05-19T00:34:27.596Z,0.00
2019-05-19T00:35:27.584Z,0.00
2019-05-19T00:36:27.574Z,0.00
2019-05-19T00:37:27.560Z,0.00
2019-05-19T00:38:27.556Z,0.00
2019-05-19T00:39:27.567Z,0.00
2019-05-19T00:40:27.520Z,0.00
2019-05-19T00:41:27.535Z,0.00
2019-05-19T00:42:27.989Z,0.00
2019-05-19T00:43:28.284Z,0.00
2019-05-19T00:44:27.558Z,0.00
2019-05-19T00:45:27.544Z,0.00
2019-05-19T00:46:27.482Z,0.00
2019-05-19T00:47:27.466Z,0.00
2019-05-19T00:48:27.435Z,0.00
2019-05-19T00:49:40.627Z,0.00
2019-05-19T00:50:28.425Z,0.00
2019-05-19T00:51:27.403Z,0.00
2019-05-19T00:52:27.414Z,0.00
2019-05-19T00:53:27.384Z,0.00
2019-05-19T00:54:27.381Z,0.00
2019-05-19T00:55:27.368Z,0.00
2019-05-19T00:56:27.344Z,0.00
2019-05-19T00:57:27.333Z,0.00
2019-05-19T00:58:27.332Z,0.00
2019-05-19T00:59:27.346Z,0.00
2019-05-19T01:00:27.319Z,0.00
2019-05-19T01:01:27.308Z,0.00
2019-05-19T01:02:27.295Z,0.00
2019-05-19T01:03:27.272Z,0.00
2019-05-19T01:04:27.259Z,0.00
2019-05-19T01:05:27.274Z,0.00
2019-05-19T01:06:27.284Z,0.00
2019-05-19T01:07:27.224Z,0.00
2019-05-19T01:08:27.215Z,0.00
2019-05-19T01:09:27.199Z,0.00
2019-05-19T01:10:27.202Z,0.00
2019-05-19T01:11:27.213Z,0.00
2019-05-19T01:12:27.162Z,0.00
2019-05-19T01:13:27.184Z,0.00
2019-05-19T01:14:27.431Z,0.00
2019-05-19T01:15:27.525Z,0.00
2019-05-19T01:16:27.284Z,0.00
2019-05-19T01:17:27.132Z,0.00
2019-05-19T01:18:27.852Z,0.00
2019-05-19T01:19:27.091Z,0.00
2019-05-19T01:20:27.099Z,0.00
2019-05-19T01:21:27.084Z,0.00
2019-05-19T01:22:27.389Z,0.00
2019-05-19T01:23:27.049Z,0.00
2019-05-19T01:24:27.093Z,0.00
2019-05-19T01:25:27.054Z,0.00
2019-05-19T01:26:27.022Z,0.00
2019-05-19T01:27:27.008Z,0.00
2019-05-19T01:28:27.021Z,0.00
2019-05-19T01:29:27.193Z,0.00
2019-05-19T01:30:27.011Z,0.00
2019-05-19T01:31:26.988Z,0.00
2019-05-19T01:32:26.947Z,0.00
2019-05-19T01:33:26.982Z,0.00
2019-05-19T01:34:26.933Z,0.00
2019-05-19T01:35:26.921Z,0.00
2019-05-19T01:36:26.922Z,0.00
2019-05-19T01:37:26.950Z,0.00
2019-05-19T01:38:28.884Z,0.00
2019-05-19T01:39:26.906Z,0.00
2019-05-19T01:40:26.872Z,0.00
2019-05-19T01:41:26.866Z,0.00
2019-05-19T01:42:26.977Z,0.00
2019-05-19T01:43:26.840Z,0.00
2019-05-19T01:44:26.849Z,0.00
2019-05-19T01:45:26.860Z,0.00
2019-05-19T01:46:26.800Z,0.00
2019-05-19T01:47:26.836Z,0.00
2019-05-19T01:48:28.107Z,0.00
2019-05-19T01:49:26.772Z,0.00
2019-05-19T01:50:26.773Z,0.00
2019-05-19T01:51:26.758Z,0.00
2019-05-19T01:52:26.789Z,0.00
2019-05-19T01:53:26.726Z,0.00
2019-05-19T01:54:26.747Z,0.00
2019-05-19T01:55:26.719Z,0.00
2019-05-19T01:56:26.710Z,0.00
2019-05-19T01:57:26.680Z,0.00
2019-05-19T01:58:26.680Z,0.00
2019-05-19T01:59:26.658Z,0.00
2019-05-19T02:00:26.649Z,0.00
2019-05-19T02:01:26.652Z,0.00
2019-05-19T02:02:26.651Z,0.00
2019-05-19T02:03:26.641Z,0.00
2019-05-19T02:04:26.607Z,0.00
2019-05-19T02:05:26.598Z,0.00
2019-05-19T02:06:26.588Z,0.00
2019-05-19T02:07:26.626Z,0.00
2019-05-19T02:08:26.569Z,0.00
2019-05-19T02:09:26.569Z,0.00
2019-05-19T02:10:26.550Z,0.00
2019-05-19T02:11:26.532Z,0.00
2019-05-19T02:12:26.529Z,0.00
2019-05-19T02:13:26.509Z,0.00
2019-05-19T02:14:26.514Z,0.00
2019-05-19T02:15:26.509Z,0.00
2019-05-19T02:16:26.480Z,0.00
2019-05-19T02:17:26.466Z,0.00
2019-05-19T02:18:26.462Z,0.00
2019-05-19T02:19:26.471Z,0.00
2019-05-19T02:20:33.043Z,0.00
2019-05-19T02:21:27.429Z,0.00
2019-05-19T02:22:26.406Z,0.00
2019-05-19T02:23:26.400Z,0.00
2019-05-19T02:24:26.428Z,0.00
2019-05-19T02:25:26.396Z,0.00
2019-05-19T02:26:26.390Z,0.00
2019-05-19T02:27:26.377Z,0.00
2019-05-19T02:28:26.348Z,0.00
2019-05-19T02:29:26.357Z,0.00
2019-05-19T02:30:26.318Z,0.00
2019-05-19T02:31:26.336Z,0.00
2019-05-19T02:32:26.313Z,0.00
2019-05-19T02:33:26.291Z,0.00
2019-05-19T02:34:26.295Z,0.00
2019-05-19T02:35:26.278Z,0.00
2019-05-19T02:36:26.263Z,0.00
2019-05-19T02:37:26.279Z,0.00
2019-05-19T02:38:26.248Z,0.00
2019-05-19T02:39:26.237Z,0.00
2019-05-19T02:40:26.218Z,0.00
2019-05-19T02:41:26.205Z,0.00
2019-05-19T02:42:26.198Z,0.00
2019-05-19T02:43:26.219Z,0.00
2019-05-19T02:44:26.227Z,0.00
2019-05-19T02:45:26.190Z,0.00
2019-05-19T02:46:26.154Z,0.00
2019-05-19T02:47:26.152Z,0.00
2019-05-19T02:48:26.166Z,0.00
2019-05-19T02:49:26.138Z,0.00
2019-05-19T02:50:26.105Z,0.00
2019-05-19T02:51:26.100Z,0.00
2019-05-19T02:52:26.089Z,4.00
2019-05-19T02:53:26.076Z,4.00
2019-05-19T02:54:26.264Z,0.00
2019-05-19T02:55:26.061Z,0.00
2019-05-19T02:56:26.326Z,4.00
2019-05-19T02:57:26.128Z,4.00
2019-05-19T02:58:26.138Z,4.00
2019-05-19T02:59:26.780Z,4.00
2019-05-19T03:00:26.196Z,4.00
2019-05-19T03:01:26.009Z,8.00
2019-05-19T03:02:25.975Z,4.00
2019-05-19T03:03:26.042Z,8.00
2019-05-19T03:04:25.956Z,8.00
2019-05-19T03:05:25.967Z,8.00
2019-05-19T03:06:25.947Z,12.00
2019-05-19T03:07:25.956Z,12.00
2019-05-19T03:08:26.086Z,12.00
2019-05-19T03:09:25.905Z,12.00
2019-05-19T03:10:25.942Z,16.00
2019-05-19T03:11:25.892Z,20.00
2019-05-19T03:12:25.867Z,20.00
2019-05-19T03:13:25.856Z,24.00
2019-05-19T03:14:26.294Z,28.00
2019-05-19T03:15:26.124Z,32.00
2019-05-19T03:16:26.206Z,36.00
2019-05-19T03:17:26.152Z,40.00
2019-05-19T03:18:26.175Z,44.00
2019-05-19T03:19:26.184Z,52.00
2019-05-19T03:20:26.284Z,60.00
2019-05-19T03:21:26.783Z,68.00
2019-05-19T03:22:26.335Z,72.00
2019-05-19T03:23:25.777Z,84.00
2019-05-19T03:24:25.734Z,88.00
2019-05-19T03:25:25.813Z,96.00
2019-05-19T03:26:25.734Z,108.00
2019-05-19T03:27:25.994Z,116.00
2019-05-19T03:28:26.661Z,128.00
2019-05-19T03:29:25.822Z,140.00
2019-05-19T03:30:25.777Z,152.00
2019-05-19T03:31:25.695Z,164.00
2019-05-19T03:32:25.668Z,176.00
2019-05-19T03:33:26.030Z,192.00
2019-05-19T03:34:27.005Z,208.00
2019-05-19T03:35:25.901Z,224.00
2019-05-19T03:36:25.914Z,244.00
2019-05-19T03:37:26.971Z,264.00
2019-05-19T03:38:26.651Z,280.00
2019-05-19T03:39:25.859Z,304.00
2019-05-19T03:40:25.713Z,324.00
2019-05-19T03:41:25.615Z,344.00
2019-05-19T03:42:25.581Z,368.00
2019-05-19T03:43:26.555Z,392.00
2019-05-19T03:44:26.049Z,420.00
2019-05-19T03:45:25.763Z,444.00
2019-05-19T03:46:26.222Z,476.00
2019-05-19T03:47:25.507Z,508.00
2019-05-19T03:48:27.276Z,544.00
2019-05-19T03:49:25.672Z,580.00
2019-05-19T03:50:25.799Z,616.00
2019-05-19T03:51:30.919Z,656.00
2019-05-19T03:52:26.829Z,700.00
2019-05-19T03:53:25.821Z,744.00
2019-05-19T03:54:25.505Z,792.00
2019-05-19T03:55:25.456Z,840.00
2019-05-19T03:56:26.147Z,892.00
2019-05-19T03:57:25.962Z,940.00
2019-05-19T03:58:26.024Z,992.00
2019-05-19T03:59:25.420Z,1036.00
2019-05-19T04:00:25.385Z,1080.00
2019-05-19T04:01:25.464Z,1112.00
2019-05-19T04:02:25.578Z,1152.00
2019-05-19T04:03:25.633Z,1188.00
2019-05-19T04:04:25.622Z,1220.00
2019-05-19T04:05:25.455Z,1256.00
2019-05-19T04:06:25.800Z,1288.00
2019-05-19T04:07:26.489Z,1324.00
2019-05-19T04:08:25.446Z,1364.00
2019-05-19T04:09:25.449Z,1412.00
2019-05-19T04:10:25.508Z,1460.00
2019-05-19T04:11:25.295Z,1524.00
2019-05-19T04:12:25.442Z,1588.00
2019-05-19T04:13:25.424Z,1652.00
2019-05-19T04:14:25.335Z,1704.00
2019-05-19T04:15:25.659Z,1756.00
2019-05-19T04:16:25.315Z,1804.00
2019-05-19T04:17:25.300Z,1836.00
2019-05-19T04:18:25.332Z,1876.00
2019-05-19T04:19:25.262Z,1904.00
2019-05-19T04:20:25.433Z,1936.00
2019-05-19T04:21:25.282Z,1952.00
2019-05-19T04:22:25.542Z,1968.00
2019-05-19T04:23:25.214Z,1980.00
2019-05-19T04:24:25.262Z,1992.00
2019-05-19T04:25:25.236Z,2020.00
2019-05-19T04:26:25.524Z,2056.00
2019-05-19T04:27:25.241Z,2108.00
2019-05-19T04:28:25.051Z,2176.00
2019-05-19T04:29:25.069Z,2252.00
2019-05-19T04:30:25.238Z,2336.00
2019-05-19T04:31:25.237Z,2440.00
2019-05-19T04:32:25.261Z,2540.00
2019-05-19T04:33:25.420Z,2656.00
2019-05-19T04:34:25.045Z,2776.00
2019-05-19T04:35:25.248Z,2864.00
2019-05-19T04:36:25.047Z,2928.00
2019-05-19T04:37:25.405Z,2968.00
2019-05-19T04:38:24.971Z,3012.00
2019-05-19T04:39:25.225Z,3060.00
2019-05-19T04:40:25.057Z,3160.00
2019-05-19T04:41:25.024Z,3232.00
2019-05-19T04:42:25.018Z,3352.00
2019-05-19T04:43:25.007Z,3476.00
2019-05-19T04:44:24.890Z,3568.00
2019-05-19T04:45:25.311Z,3656.00
2019-05-19T04:46:24.945Z,3704.00
2019-05-19T04:47:25.186Z,3760.00
2019-05-19T04:48:24.984Z,3864.00
2019-05-19T04:49:25.356Z,3980.00
2019-05-19T04:50:24.995Z,4120.00
2019-05-19T04:51:25.023Z,4240.00
2019-05-19T04:52:25.022Z,4364.00
2019-05-19T04:53:24.937Z,4484.00
2019-05-19T04:54:24.876Z,4600.00
2019-05-19T04:55:24.866Z,4712.00
2019-05-19T04:56:24.962Z,4832.00
2019-05-19T04:57:25.146Z,4924.00
2019-05-19T04:58:24.934Z,4992.00
2019-05-19T04:59:24.730Z,5028.00
2019-05-19T05:00:24.722Z,5044.00
2019-05-19T05:01:24.870Z,5076.00
2019-05-19T05:02:25.990Z,5108.00
2019-05-19T05:03:24.763Z,5148.00
2019-05-19T05:04:29.020Z,5188.00
2019-05-19T05:05:25.035Z,5196.00
2019-05-19T05:06:24.714Z,5204.00
2019-05-19T05:07:24.752Z,5212.00
2019-05-19T05:08:30.412Z,5180.00
2019-05-19T05:09:25.840Z,5204.00
2019-05-19T05:10:24.669Z,5236.00
2019-05-19T05:11:24.672Z,5284.00
2019-05-19T05:12:24.619Z,5324.00
2019-05-19T05:13:24.784Z,5408.00
2019-05-19T05:14:25.009Z,5504.00
2019-05-19T05:15:24.709Z,5600.00
2019-05-19T05:16:24.642Z,5668.00
2019-05-19T05:17:24.548Z,5696.00
2019-05-19T05:18:24.555Z,5728.00
2019-05-19T05:19:24.575Z,5768.00
2019-05-19T05:20:24.990Z,5828.00
2019-05-19T05:21:24.723Z,5948.00
2019-05-19T05:22:24.626Z,5976.00
2019-05-19T05:23:24.633Z,6104.00
2019-05-19T05:24:24.533Z,6424.00
2019-05-19T05:25:24.848Z,6700.00
2019-05-19T05:26:24.518Z,6860.00
2019-05-19T05:27:24.522Z,6940.00
2019-05-19T05:28:24.577Z,6988.00
2019-05-19T05:29:24.629Z,6916.00
2019-05-19T05:30:24.771Z,6948.00
2019-05-19T05:31:24.432Z,6816.00
2019-05-19T05:32:24.573Z,6904.00
2019-05-19T05:33:24.671Z,6764.00
2019-05-19T05:34:24.445Z,6612.00
2019-05-19T05:35:24.359Z,6488.00
2019-05-19T05:36:27.303Z,6308.00
2019-05-19T05:37:24.560Z,6736.00
2019-05-19T05:38:24.396Z,6680.00
2019-05-19T05:39:24.550Z,6068.00
2019-05-19T05:40:24.448Z,5692.00
2019-05-19T05:41:24.385Z,5724.00
2019-05-19T05:42:24.308Z,5848.00
2019-05-19T05:43:24.386Z,6016.00
2019-05-19T05:44:24.470Z,6068.00
2019-05-19T05:45:24.263Z,6152.00
2019-05-19T05:46:24.249Z,6372.00
2019-05-19T05:47:24.208Z,6576.00
2019-05-19T05:48:24.255Z,6852.00
2019-05-19T05:49:24.169Z,6884.00
2019-05-19T05:50:24.263Z,7104.00
2019-05-19T05:51:24.288Z,7172.00
2019-05-19T05:52:37.581Z,7220.00
2019-05-19T05:53:25.277Z,7308.00
2019-05-19T05:54:24.143Z,7452.00
2019-05-19T05:55:24.151Z,7648.00
2019-05-19T05:56:24.114Z,7848.00
2019-05-19T05:57:24.364Z,8040.00
2019-05-19T05:58:24.360Z,8228.00
2019-05-19T05:59:24.137Z,8384.00
2019-05-19T06:00:24.179Z,8544.00
2019-05-19T06:01:24.076Z,8672.00
2019-05-19T06:02:24.080Z,8804.00
2019-05-19T06:03:24.042Z,8960.00
2019-05-19T06:04:24.035Z,9152.00
2019-05-19T06:05:24.008Z,9368.00
2019-05-19T06:06:24.028Z,9572.00
2019-05-19T06:07:23.987Z,9756.00
2019-05-19T06:08:23.964Z,9968.00
2019-05-19T06:09:24.022Z,10168.00
2019-05-19T06:10:23.949Z,10364.00
2019-05-19T06:11:23.999Z,10548.00
2019-05-19T06:12:23.939Z,10732.00
2019-05-19T06:13:23.977Z,10904.00
2019-05-19T06:14:23.921Z,11040.00
2019-05-19T06:15:23.951Z,11160.00
2019-05-19T06:16:23.886Z,11264.00
2019-05-19T06:17:23.995Z,11384.00
2019-05-19T06:18:25.145Z,11528.00
2019-05-19T06:19:24.184Z,11716.00
2019-05-19T06:20:23.843Z,11936.00
2019-05-19T06:21:23.836Z,12168.00
2019-05-19T06:22:23.940Z,12368.00
2019-05-19T06:23:23.809Z,12560.00
2019-05-19T06:24:23.864Z,12728.00
2019-05-19T06:25:23.889Z,12896.00
2019-05-19T06:26:23.779Z,13044.00
2019-05-19T06:27:23.788Z,13220.00
2019-05-19T06:28:23.748Z,13368.00
2019-05-19T06:29:23.755Z,13512.00
2019-05-19T06:30:23.770Z,13664.00
2019-05-19T06:31:45.337Z,13852.00
2019-05-19T06:32:23.746Z,14072.00
2019-05-19T06:33:23.703Z,14288.00
2019-05-19T06:34:23.720Z,14460.00
2019-05-19T06:35:23.691Z,14560.00
2019-05-19T06:36:23.687Z,14688.00
2019-05-19T06:37:23.699Z,14756.00
2019-05-19T06:38:23.656Z,14844.00
2019-05-19T06:39:23.638Z,14908.00
2019-05-19T06:40:23.637Z,14964.00
2019-05-19T06:41:23.630Z,14968.00
2019-05-19T06:42:23.596Z,15020.00
2019-05-19T06:43:23.594Z,15056.00
2019-05-19T06:44:23.611Z,15056.00
2019-05-19T06:45:23.680Z,15136.00
2019-05-19T06:46:23.568Z,15236.00
2019-05-19T06:47:23.570Z,15360.00
2019-05-19T06:48:23.556Z,15376.00
2019-05-19T06:49:23.560Z,15424.00
2019-05-19T06:50:23.517Z,15460.00
2019-05-19T06:51:23.568Z,15456.00
2019-05-19T06:52:23.494Z,15508.00
2019-05-19T06:53:23.484Z,15744.00
2019-05-19T06:54:23.462Z,15808.00
2019-05-19T06:55:23.510Z,16032.00
2019-05-19T06:56:23.476Z,16192.00
2019-05-19T06:57:23.442Z,16416.00
2019-05-19T06:58:23.468Z,16608.00
2019-05-19T06:59:23.428Z,16800.00
2019-05-19T07:00:23.469Z,17024.00
2019-05-19T07:01:23.385Z,16992.00
2019-05-19T07:02:23.422Z,17056.00
2019-05-19T07:03:23.374Z,17152.00
2019-05-19T07:04:23.359Z,17216.00
2019-05-19T07:05:23.410Z,17280.00
2019-05-19T07:06:23.372Z,17472.00
2019-05-19T07:07:23.337Z,17696.00
2019-05-19T07:08:23.444Z,17824.00
2019-05-19T07:09:23.393Z,18016.00
2019-05-19T07:10:23.307Z,18144.00
2019-05-19T07:11:23.298Z,18176.00
2019-05-19T07:12:23.293Z,17952.00
2019-05-19T07:13:23.281Z,18016.00
2019-05-19T07:14:23.246Z,18112.00
2019-05-19T07:15:23.270Z,18144.00
2019-05-19T07:16:23.245Z,17952.00
2019-05-19T07:17:23.235Z,17888.00
2019-05-19T07:18:23.219Z,17600.00
2019-05-19T07:19:23.198Z,17248.00
2019-05-19T07:20:24.050Z,17056.00
2019-05-19T07:21:23.192Z,17088.00
2019-05-19T07:22:23.187Z,16960.00
2019-05-19T07:23:28.287Z,16768.00
2019-05-19T07:24:24.159Z,16512.00
2019-05-19T07:25:23.139Z,16160.00
2019-05-19T07:26:23.157Z,16096.00
2019-05-19T07:27:23.119Z,15968.00
2019-05-19T07:28:23.180Z,15624.00
2019-05-19T07:29:23.096Z,15660.00
2019-05-19T07:30:23.169Z,15376.00
2019-05-19T07:31:23.069Z,15388.00
2019-05-19T07:32:23.066Z,15428.00
2019-05-19T07:33:23.731Z,15340.00
2019-05-19T07:34:23.057Z,15440.00
2019-05-19T07:35:23.088Z,15488.00
2019-05-19T07:36:23.025Z,15744.00
2019-05-19T07:37:23.046Z,15776.00
2019-05-19T07:38:23.233Z,15840.00
2019-05-19T07:39:22.994Z,16032.00
2019-05-19T07:40:23.070Z,16128.00
2019-05-19T07:41:22.969Z,16320.00
2019-05-19T07:42:22.983Z,16576.00
2019-05-19T07:43:22.997Z,16704.00
2019-05-19T07:44:22.937Z,16768.00
2019-05-19T07:45:22.949Z,16768.00
2019-05-19T07:46:22.920Z,16736.00
2019-05-19T07:47:23.306Z,16704.00
2019-05-19T07:48:22.937Z,16736.00
2019-05-19T07:49:22.890Z,16832.00
2019-05-19T07:50:22.888Z,16832.00
2019-05-19T07:51:22.910Z,16640.00
2019-05-19T07:52:22.845Z,16640.00
2019-05-19T07:53:22.840Z,16608.00
2019-05-19T07:54:22.861Z,16736.00
2019-05-19T07:55:22.840Z,16864.00
2019-05-19T07:56:22.809Z,16832.00
2019-05-19T07:57:22.790Z,16800.00
2019-05-19T07:58:22.793Z,16672.00
2019-05-19T07:59:22.783Z,16448.00
2019-05-19T08:00:22.790Z,16352.00
2019-05-19T08:01:22.770Z,16192.00
2019-05-19T08:02:23.149Z,15936.00
2019-05-19T08:03:22.730Z,15400.00
2019-05-19T08:04:23.328Z,15168.00
2019-05-19T08:05:22.706Z,14756.00
2019-05-19T08:06:22.706Z,14456.00
2019-05-19T08:07:22.759Z,14196.00
2019-05-19T08:08:22.668Z,14500.00
2019-05-19T08:09:22.679Z,14656.00
2019-05-19T08:10:22.667Z,18400.00
2019-05-19T08:11:22.689Z,23552.00
2019-05-19T08:12:22.645Z,18272.00
2019-05-19T08:13:22.651Z,14180.00
2019-05-19T08:14:22.615Z,16768.00
2019-05-19T08:15:22.669Z,19552.00
2019-05-19T08:16:22.623Z,25248.00
2019-05-19T08:17:25.759Z,32640.00
2019-05-19T08:18:22.599Z,46688.00
2019-05-19T08:19:22.579Z,58048.00
2019-05-19T08:20:22.544Z,62752.00
2019-05-19T08:21:23.655Z,62560.00
2019-05-19T08:22:22.519Z,61280.00
2019-05-19T08:23:22.542Z,57888.00
2019-05-19T08:24:22.522Z,57984.00
2019-05-19T08:25:22.521Z,60096.00
2019-05-19T08:26:23.226Z,61088.00
2019-05-19T08:27:22.482Z,61920.00
2019-05-19T08:28:22.471Z,64288.00
2019-05-19T08:29:22.468Z,64320.00
2019-05-19T08:30:22.476Z,64480.00
2019-05-19T08:31:22.436Z,57216.00
2019-05-19T08:32:22.626Z,61824.00
2019-05-19T08:33:22.437Z,63488.00
2019-05-19T08:34:22.407Z,53600.00
2019-05-19T08:35:22.392Z,49088.00
2019-05-19T08:36:22.373Z,47680.00
2019-05-19T08:37:22.383Z,53920.00
2019-05-19T08:38:22.976Z,58272.00
2019-05-19T08:39:22.554Z,54592.00
2019-05-19T08:40:23.598Z,45056.00
2019-05-19T08:41:22.662Z,37440.00
2019-05-19T08:42:22.313Z,30240.00
2019-05-19T08:43:22.338Z,36000.00
2019-05-19T08:44:22.398Z,37120.00
2019-05-19T08:45:24.300Z,47840.00
2019-05-19T08:46:22.342Z,53440.00
2019-05-19T08:47:22.417Z,55872.00
2019-05-19T08:48:22.255Z,47616.00
2019-05-19T08:49:22.446Z,41536.00
2019-05-19T08:50:22.258Z,43424.00
2019-05-19T08:51:22.397Z,42624.00
2019-05-19T08:52:23.915Z,44992.00
2019-05-19T08:53:22.239Z,52736.00
2019-05-19T08:54:22.222Z,53568.00
2019-05-19T08:55:23.203Z,58752.00
2019-05-19T08:56:22.230Z,62944.00
2019-05-19T08:57:22.343Z,60000.00
2019-05-19T08:58:22.238Z,57568.00
2019-05-19T08:59:22.210Z,60864.00
2019-05-19T09:00:23.714Z,57952.00
2019-05-19T09:01:26.176Z,48448.00
2019-05-19T09:02:26.862Z,54720.00
2019-05-19T09:03:22.299Z,50336.00
2019-05-19T09:04:22.113Z,46976.00
2019-05-19T09:05:22.121Z,41792.00
2019-05-19T09:06:22.134Z,37888.00
2019-05-19T09:07:22.253Z,56768.00
2019-05-19T09:08:22.245Z,59424.00
2019-05-19T09:09:22.058Z,57504.00
2019-05-19T09:10:22.114Z,53120.00
2019-05-19T09:11:22.096Z,55520.00
2019-05-19T09:12:22.051Z,55328.00
2019-05-19T09:13:22.106Z,58880.00
2019-05-19T09:14:22.046Z,52320.00
2019-05-19T09:15:22.060Z,32096.00
2019-05-19T09:16:22.301Z,41184.00
2019-05-19T09:17:21.960Z,30784.00
2019-05-19T09:18:22.092Z,45952.00
2019-05-19T09:19:22.015Z,51488.00
2019-05-19T09:20:21.986Z,66048.00
2019-05-19T09:21:21.997Z,71776.00
2019-05-19T09:22:22.021Z,68256.00
2019-05-19T09:23:22.265Z,64320.00
2019-05-19T09:24:30.066Z,58208.00
2019-05-19T09:25:22.887Z,62016.00
2019-05-19T09:26:22.104Z,53120.00
2019-05-19T09:27:22.056Z,58240.00
2019-05-19T09:28:22.350Z,61472.00
2019-05-19T09:29:22.259Z,60544.00
2019-05-19T09:30:21.888Z,63360.00
2019-05-19T09:31:21.840Z,55520.00
2019-05-19T09:32:21.815Z,56320.00
2019-05-19T09:33:21.962Z,50464.00
2019-05-19T09:34:22.698Z,52032.00
2019-05-19T09:35:21.928Z,45088.00
2019-05-19T09:36:21.849Z,44288.00
2019-05-19T09:37:22.013Z,52896.00
2019-05-19T09:38:21.805Z,51296.00
2019-05-19T09:39:21.799Z,44672.00
2019-05-19T09:40:21.919Z,48800.00
2019-05-19T09:41:21.756Z,51552.00
2019-05-19T09:42:21.833Z,50144.00
2019-05-19T09:43:21.710Z,42688.00
2019-05-19T09:44:21.975Z,44608.00
2019-05-19T09:45:21.718Z,37312.00
2019-05-19T09:46:21.845Z,35200.00
2019-05-19T09:47:22.039Z,36032.00
2019-05-19T09:48:21.648Z,38528.00
2019-05-19T09:49:21.741Z,36864.00
2019-05-19T09:50:21.954Z,49184.00
2019-05-19T09:51:21.716Z,57088.00
2019-05-19T09:52:21.618Z,58112.00
2019-05-19T09:53:21.772Z,55008.00
2019-05-19T09:54:21.764Z,53024.00
2019-05-19T09:55:21.690Z,52160.00
2019-05-19T09:56:21.568Z,61216.00
2019-05-19T09:57:21.664Z,64640.00
2019-05-19T09:58:21.568Z,50336.00
2019-05-19T09:59:21.634Z,50304.00
2019-05-19T10:00:21.545Z,37248.00
2019-05-19T10:01:21.712Z,38080.00
2019-05-19T10:02:21.584Z,38912.00
2019-05-19T10:03:21.607Z,38816.00
2019-05-19T10:04:21.520Z,41376.00
2019-05-19T10:05:21.463Z,38944.00
2019-05-19T10:06:21.480Z,34976.00
2019-05-19T10:07:21.452Z,30240.00
2019-05-19T10:08:21.621Z,27360.00
2019-05-19T10:09:21.494Z,28640.00
2019-05-19T10:10:21.466Z,27616.00
2019-05-19T10:11:22.054Z,27296.00
2019-05-19T10:12:21.705Z,28288.00
2019-05-19T10:13:21.446Z,29472.00
2019-05-19T10:14:21.429Z,30560.00
2019-05-19T10:15:21.485Z,31488.00
2019-05-19T10:16:21.456Z,32896.00
2019-05-19T10:17:21.379Z,33312.00
2019-05-19T10:18:21.363Z,33312.00
2019-05-19T10:19:21.397Z,32800.00
2019-05-19T10:20:21.380Z,31616.00
2019-05-19T10:21:21.325Z,31744.00
2019-05-19T10:22:21.348Z,31168.00
2019-05-19T10:23:21.296Z,30624.00
2019-05-19T10:24:21.303Z,30624.00
2019-05-19T10:25:22.937Z,30432.00
2019-05-19T10:26:22.261Z,29792.00
2019-05-19T10:27:21.922Z,29152.00
2019-05-19T10:28:21.237Z,28992.00
2019-05-19T10:29:21.241Z,28512.00
2019-05-19T10:30:21.328Z,27968.00
2019-05-19T10:31:21.250Z,27136.00
2019-05-19T10:32:21.409Z,26464.00
2019-05-19T10:33:21.216Z,26560.00
2019-05-19T10:34:21.208Z,26240.00
2019-05-19T10:35:21.180Z,26464.00
2019-05-19T10:36:21.247Z,27520.00
2019-05-19T10:37:21.199Z,28992.00
2019-05-19T10:38:21.263Z,30336.00
2019-05-19T10:39:21.819Z,30944.00
2019-05-19T10:40:21.122Z,31680.00
2019-05-19T10:41:21.179Z,32000.00
2019-05-19T10:42:21.547Z,31264.00
2019-05-19T10:43:21.123Z,29856.00
2019-05-19T10:44:21.117Z,29152.00
2019-05-19T10:45:21.099Z,29120.00
2019-05-19T10:46:21.101Z,29760.00
2019-05-19T10:47:21.104Z,33792.00
2019-05-19T10:48:21.104Z,35936.00
2019-05-19T10:49:21.189Z,36736.00
2019-05-19T10:50:21.035Z,40448.00
2019-05-19T10:51:21.151Z,44416.00
2019-05-19T10:52:21.056Z,59328.00
2019-05-19T10:53:20.976Z,78656.00
2019-05-19T10:54:21.081Z,101536.00
2019-05-19T10:55:34.055Z,65152.00
2019-05-19T10:56:21.983Z,52640.00
2019-05-19T10:57:20.985Z,114976.00
2019-05-19T10:58:21.011Z,112128.00
2019-05-19T10:59:22.016Z,108384.00
2019-05-19T11:00:20.946Z,110240.00
2019-05-19T11:01:20.977Z,105664.00
2019-05-19T11:02:22.025Z,93216.00
2019-05-19T11:03:20.968Z,82656.00
2019-05-19T11:04:20.969Z,74208.00
2019-05-19T11:05:20.955Z,57024.00
2019-05-19T11:06:20.957Z,53760.00
2019-05-19T11:07:20.832Z,56992.00
2019-05-19T11:08:20.877Z,59008.00
2019-05-19T11:09:20.887Z,58496.00
2019-05-19T11:10:20.845Z,59808.00
2019-05-19T11:11:21.823Z,80768.00
2019-05-19T11:12:20.939Z,69184.00
2019-05-19T11:13:20.970Z,62400.00
2019-05-19T11:14:20.828Z,60000.00
2019-05-19T11:15:20.842Z,83104.00
2019-05-19T11:16:20.785Z,85824.00
2019-05-19T11:17:20.750Z,61344.00
2019-05-19T11:18:20.945Z,55648.00
2019-05-19T11:19:20.960Z,60480.00
2019-05-19T11:20:20.850Z,76896.00
2019-05-19T11:21:20.825Z,85472.00
2019-05-19T11:22:20.703Z,73376.00
2019-05-19T11:23:20.741Z,68928.00
2019-05-19T11:24:20.673Z,60128.00
2019-05-19T11:25:33.092Z,44640.00
2019-05-19T11:26:21.634Z,30368.00
2019-05-19T11:27:20.686Z,30848.00
2019-05-19T11:28:20.704Z,47744.00
2019-05-19T11:29:20.738Z,66656.00
2019-05-19T11:30:20.717Z,74496.00
2019-05-19T11:31:20.790Z,79264.00
2019-05-19T11:32:20.607Z,87424.00
2019-05-19T11:33:20.767Z,91776.00
2019-05-19T11:34:20.676Z,94240.00
2019-05-19T11:35:20.585Z,93408.00
2019-05-19T11:36:20.660Z,86720.00
2019-05-19T11:37:20.665Z,96352.00
2019-05-19T11:38:20.724Z,96896.00
2019-05-19T11:39:20.630Z,103072.00
2019-05-19T11:40:21.254Z,103008.00
2019-05-19T11:41:20.562Z,103040.00
2019-05-19T11:42:20.544Z,102976.00
2019-05-19T11:43:20.473Z,78688.00
2019-05-19T11:44:20.501Z,97248.00
2019-05-19T11:45:20.602Z,98432.00
2019-05-19T11:46:20.553Z,90176.00
2019-05-19T11:47:20.500Z,70592.00
2019-05-19T11:48:20.740Z,67424.00
2019-05-19T11:49:20.436Z,53696.00
2019-05-19T11:50:20.529Z,43456.00
2019-05-19T11:51:20.587Z,37280.00
2019-05-19T11:52:22.884Z,34496.00
2019-05-19T11:53:20.435Z,37056.00
2019-05-19T11:54:29.984Z,43712.00
2019-05-19T11:55:20.555Z,45856.00
2019-05-19T11:56:20.389Z,47136.00
2019-05-19T11:57:20.461Z,42432.00
2019-05-19T11:58:20.432Z,34080.00
2019-05-19T11:59:20.504Z,29728.00
2019-05-19T12:00:20.438Z,27744.00
2019-05-19T12:01:20.314Z,28064.00
2019-05-19T12:02:20.666Z,30304.00
2019-05-19T12:03:20.364Z,31072.00
2019-05-19T12:04:20.322Z,31552.00
2019-05-19T12:05:20.267Z,31968.00
2019-05-19T12:06:21.015Z,32384.00
2019-05-19T12:07:20.757Z,31552.00
2019-05-19T12:08:20.486Z,30272.00
2019-05-19T12:09:20.305Z,27712.00
2019-05-19T12:10:21.123Z,25568.00
2019-05-19T12:11:20.449Z,23264.00
2019-05-19T12:12:20.262Z,21056.00
2019-05-19T12:13:20.320Z,19168.00